sensor_id;sensor_type;location;lat;lon;timestamp;P1;durP1;ratioP1;P2;durP2;ratioP2
59410;SDS011;45215;32.610;-115.482;2022-08-21T00:00:03;4.80;;;4.22;;
59410;SDS011;45215;32.610;-115.482;2022-08-21T00:02:35;4.68;;;3.90;;
59410;SDS011;45215;32.610;-115.482;2022-08-21T00:05:02;4.38;;;3.97;;
59410;SDS011;45215;32.610;-115.482;2022-08-21T00:07:29;4.13;;;3.72;;
59410;SDS011;45215;32.610;-115.482;2022-08-21T00:09:55;4.80;;;3.72;;
59410;SDS011;45215;32.610;-115.482;2022-08-21T00:12:22;4.00;;;3.40;;
59410;SDS011;45215;32.610;-115.482;2022-08-21T00:14:48;5.43;;;3.40;;
59410;SDS011;45215;32.610;-115.482;2022-08-21T00:17:14;6.05;;;3.45;;
59410;SDS011;45215;32.610;-115.482;2022-08-21T00:19:40;4.57;;;2.90;;
59410;SDS011;45215;32.610;-115.482;2022-08-21T00:22:07;4.90;;;2.75;;
59410;SDS011;45215;32.610;-115.482;2022-08-21T00:24:33;4.40;;;3.00;;
59410;SDS011;45215;32.610;-115.482;2022-08-21T00:26:59;4.60;;;2.88;;
59410;SDS011;45215;32.610;-115.482;2022-08-21T00:29:25;4.60;;;3.10;;
59410;SDS011;45215;32.610;-115.482;2022-08-21T00:31:51;3.38;;;2.58;;
59410;SDS011;45215;32.610;-115.482;2022-08-21T00:34:18;3.17;;;2.60;;
59410;SDS011;45215;32.610;-115.482;2022-08-21T00:36:45;3.50;;;2.50;;
59410;SDS011;45215;32.610;-115.482;2022-08-21T00:39:11;3.20;;;2.63;;
59410;SDS011;45215;32.610;-115.482;2022-08-21T00:41:37;4.30;;;2.20;;
59410;SDS011;45215;32.610;-115.482;2022-08-21T00:44:07;4.25;;;2.50;;
59410;SDS011;45215;32.610;-115.482;2022-08-21T00:46:35;4.20;;;2.50;;
59410;SDS011;45215;32.610;-115.482;2022-08-21T00:49:02;2.80;;;2.40;;
59410;SDS011;45215;32.610;-115.482;2022-08-21T00:52:13;4.75;;;2.40;;
59410;SDS011;45215;32.610;-115.482;2022-08-21T00:54:22;7.30;;;3.13;;
59410;SDS011;45215;32.610;-115.482;2022-08-21T00:56:53;5.95;;;4.30;;
59410;SDS011;45215;32.610;-115.482;2022-08-21T00:59:22;7.93;;;4.50;;
59410;SDS011;45215;32.610;-115.482;2022-08-21T01:01:51;9.13;;;5.88;;
59410;SDS011;45215;32.610;-115.482;2022-08-21T01:04:18;10.95;;;7.82;;
59410;SDS011;45215;32.610;-115.482;2022-08-21T01:06:45;14.88;;;8.75;;
59410;SDS011;45215;32.610;-115.482;2022-08-21T01:09:12;12.73;;;7.43;;
59410;SDS011;45215;32.610;-115.482;2022-08-21T01:11:39;12.30;;;7.43;;
59410;SDS011;45215;32.610;-115.482;2022-08-21T01:14:08;12.27;;;7.90;;
59410;SDS011;45215;32.610;-115.482;2022-08-21T01:16:37;14.45;;;9.07;;
59410;SDS011;45215;32.610;-115.482;2022-08-21T01:19:06;12.20;;;7.93;;
59410;SDS011;45215;32.610;-115.482;2022-08-21T01:21:34;13.23;;;8.52;;
59410;SDS011;45215;32.610;-115.482;2022-08-21T01:24:00;13.02;;;8.32;;
59410;SDS011;45215;32.610;-115.482;2022-08-21T01:26:27;15.30;;;8.90;;
59410;SDS011;45215;32.610;-115.482;2022-08-21T01:29:00;13.85;;;8.65;;
59410;SDS011;45215;32.610;-115.482;2022-08-21T01:31:32;14.07;;;8.95;;
59410;SDS011;45215;32.610;-115.482;2022-08-21T01:33:59;12.23;;;8.55;;
59410;SDS011;45215;32.610;-115.482;2022-08-21T01:36:26;13.18;;;8.50;;
59410;SDS011;45215;32.610;-115.482;2022-08-21T01:38:52;12.50;;;8.02;;
59410;SDS011;45215;32.610;-115.482;2022-08-21T01:41:18;13.07;;;8.02;;
59410;SDS011;45215;32.610;-115.482;2022-08-21T01:43:44;15.63;;;8.25;;
59410;SDS011;45215;32.610;-115.482;2022-08-21T01:46:11;15.13;;;8.40;;
59410;SDS011;45215;32.610;-115.482;2022-08-21T01:48:38;12.70;;;7.32;;
59410;SDS011;45215;32.610;-115.482;2022-08-21T01:51:05;10.18;;;7.35;;
59410;SDS011;45215;32.610;-115.482;2022-08-21T01:53:32;10.38;;;7.18;;
59410;SDS011;45215;32.610;-115.482;2022-08-21T01:56:03;10.32;;;6.95;;
59410;SDS011;45215;32.610;-115.482;2022-08-21T01:58:31;10.48;;;7.13;;
59410;SDS011;45215;32.610;-115.482;2022-08-21T02:00:58;11.50;;;6.90;;
59410;SDS011;45215;32.610;-115.482;2022-08-21T02:03:24;11.05;;;6.97;;
59410;SDS011;45215;32.610;-115.482;2022-08-21T02:05:54;8.77;;;6.15;;
59410;SDS011;45215;32.610;-115.482;2022-08-21T02:08:20;10.07;;;6.03;;
59410;SDS011;45215;32.610;-115.482;2022-08-21T02:10:50;8.13;;;6.32;;
59410;SDS011;45215;32.610;-115.482;2022-08-21T02:13:18;9.95;;;5.85;;
59410;SDS011;45215;32.610;-115.482;2022-08-21T02:15:44;8.70;;;5.65;;
59410;SDS011;45215;32.610;-115.482;2022-08-21T02:18:10;7.22;;;5.20;;
59410;SDS011;45215;32.610;-115.482;2022-08-21T02:20:39;6.68;;;4.90;;
59410;SDS011;45215;32.610;-115.482;2022-08-21T02:23:08;6.88;;;5.00;;
59410;SDS011;45215;32.610;-115.482;2022-08-21T02:25:35;7.53;;;5.05;;
59410;SDS011;45215;32.610;-115.482;2022-08-21T02:28:06;7.45;;;4.93;;
59410;SDS011;45215;32.610;-115.482;2022-08-21T02:30:42;7.00;;;5.00;;
59410;SDS011;45215;32.610;-115.482;2022-08-21T02:33:11;6.18;;;4.53;;
59410;SDS011;45215;32.610;-115.482;2022-08-21T02:35:40;6.10;;;4.57;;
59410;SDS011;45215;32.610;-115.482;2022-08-21T02:38:08;5.75;;;4.32;;
59410;SDS011;45215;32.610;-115.482;2022-08-21T02:40:38;5.60;;;4.20;;
59410;SDS011;45215;32.610;-115.482;2022-08-21T02:43:06;6.15;;;4.45;;
59410;SDS011;45215;32.610;-115.482;2022-08-21T02:45:33;5.30;;;4.00;;
59410;SDS011;45215;32.610;-115.482;2022-08-21T02:48:20;6.00;;;3.95;;
59410;SDS011;45215;32.610;-115.482;2022-08-21T02:50:58;5.28;;;4.13;;
59410;SDS011;45215;32.610;-115.482;2022-08-21T02:53:27;5.15;;;3.85;;
59410;SDS011;45215;32.610;-115.482;2022-08-21T02:55:56;4.25;;;3.47;;
59410;SDS011;45215;32.610;-115.482;2022-08-21T02:58:25;5.13;;;3.80;;
59410;SDS011;45215;32.610;-115.482;2022-08-21T03:00:53;7.32;;;3.90;;
59410;SDS011;45215;32.610;-115.482;2022-08-21T03:03:20;8.05;;;3.55;;
59410;SDS011;45215;32.610;-115.482;2022-08-21T03:05:46;7.82;;;3.50;;
59410;SDS011;45215;32.610;-115.482;2022-08-21T03:08:14;9.55;;;3.47;;
59410;SDS011;45215;32.610;-115.482;2022-08-21T03:10:42;6.25;;;3.22;;
59410;SDS011;45215;32.610;-115.482;2022-08-21T03:13:13;3.80;;;3.03;;
59410;SDS011;45215;32.610;-115.482;2022-08-21T03:15:41;6.50;;;3.10;;
59410;SDS011;45215;32.610;-115.482;2022-08-21T03:18:08;7.13;;;3.22;;
59410;SDS011;45215;32.610;-115.482;2022-08-21T03:20:36;4.15;;;3.05;;
59410;SDS011;45215;32.610;-115.482;2022-08-21T03:23:04;4.43;;;2.88;;
59410;SDS011;45215;32.610;-115.482;2022-08-21T03:25:31;4.32;;;2.70;;
59410;SDS011;45215;32.610;-115.482;2022-08-21T03:27:59;4.63;;;2.70;;
59410;SDS011;45215;32.610;-115.482;2022-08-21T03:30:26;4.15;;;2.78;;
59410;SDS011;45215;32.610;-115.482;2022-08-21T03:32:53;3.65;;;3.25;;
59410;SDS011;45215;32.610;-115.482;2022-08-21T03:35:19;5.90;;;2.85;;
59410;SDS011;45215;32.610;-115.482;2022-08-21T03:37:46;4.80;;;3.30;;
59410;SDS011;45215;32.610;-115.482;2022-08-21T03:40:13;5.93;;;3.17;;
59410;SDS011;45215;32.610;-115.482;2022-08-21T03:42:41;3.72;;;3.00;;
59410;SDS011;45215;32.610;-115.482;2022-08-21T03:45:08;4.20;;;3.50;;
59410;SDS011;45215;32.610;-115.482;2022-08-21T03:47:35;3.58;;;2.88;;
59410;SDS011;45215;32.610;-115.482;2022-08-21T03:50:02;4.20;;;2.83;;
59410;SDS011;45215;32.610;-115.482;2022-08-21T03:52:29;6.00;;;3.17;;
59410;SDS011;45215;32.610;-115.482;2022-08-21T03:54:55;3.72;;;3.10;;
59410;SDS011;45215;32.610;-115.482;2022-08-21T03:57:21;3.65;;;2.72;;
59410;SDS011;45215;32.610;-115.482;2022-08-21T03:59:48;4.53;;;3.00;;
59410;SDS011;45215;32.610;-115.482;2022-08-21T04:02:15;3.58;;;2.88;;
59410;SDS011;45215;32.610;-115.482;2022-08-21T04:04:46;3.90;;;2.70;;
59410;SDS011;45215;32.610;-115.482;2022-08-21T04:07:12;4.93;;;2.70;;
59410;SDS011;45215;32.610;-115.482;2022-08-21T04:09:38;3.08;;;2.65;;
59410;SDS011;45215;32.610;-115.482;2022-08-21T04:12:04;4.25;;;2.70;;
59410;SDS011;45215;32.610;-115.482;2022-08-21T04:14:31;4.05;;;2.63;;
59410;SDS011;45215;32.610;-115.482;2022-08-21T04:16:57;4.28;;;2.78;;
59410;SDS011;45215;32.610;-115.482;2022-08-21T04:19:24;4.60;;;2.67;;
59410;SDS011;45215;32.610;-115.482;2022-08-21T04:21:50;3.80;;;2.90;;
59410;SDS011;45215;32.610;-115.482;2022-08-21T04:24:16;6.50;;;4.55;;
59410;SDS011;45215;32.610;-115.482;2022-08-21T04:26:42;7.93;;;5.28;;
59410;SDS011;45215;32.610;-115.482;2022-08-21T04:29:08;7.85;;;5.38;;
59410;SDS011;45215;32.610;-115.482;2022-08-21T04:31:35;9.65;;;5.80;;
59410;SDS011;45215;32.610;-115.482;2022-08-21T04:34:02;10.82;;;7.60;;
59410;SDS011;45215;32.610;-115.482;2022-08-21T04:36:30;12.45;;;7.88;;
59410;SDS011;45215;32.610;-115.482;2022-08-21T04:38:57;11.20;;;7.35;;
59410;SDS011;45215;32.610;-115.482;2022-08-21T04:41:24;12.85;;;7.38;;
59410;SDS011;45215;32.610;-115.482;2022-08-21T04:43:50;13.77;;;8.48;;
59410;SDS011;45215;32.610;-115.482;2022-08-21T04:46:16;13.65;;;8.73;;
59410;SDS011;45215;32.610;-115.482;2022-08-21T04:48:44;12.20;;;7.72;;
59410;SDS011;45215;32.610;-115.482;2022-08-21T04:51:13;13.82;;;8.70;;
59410;SDS011;45215;32.610;-115.482;2022-08-21T04:56:25;13.88;;;8.80;;
59410;SDS011;45215;32.610;-115.482;2022-08-21T04:58:57;14.43;;;8.10;;
59410;SDS011;45215;32.610;-115.482;2022-08-21T05:01:29;13.98;;;8.70;;
59410;SDS011;45215;32.610;-115.482;2022-08-21T05:04:00;13.77;;;8.55;;
59410;SDS011;45215;32.610;-115.482;2022-08-21T05:06:30;13.70;;;8.82;;
59410;SDS011;45215;32.610;-115.482;2022-08-21T05:09:00;11.27;;;7.53;;
59410;SDS011;45215;32.610;-115.482;2022-08-21T05:11:27;12.68;;;8.30;;
59410;SDS011;45215;32.610;-115.482;2022-08-21T05:13:55;12.65;;;7.85;;
59410;SDS011;45215;32.610;-115.482;2022-08-21T05:16:21;12.75;;;8.05;;
59410;SDS011;45215;32.610;-115.482;2022-08-21T05:18:47;12.18;;;7.72;;
59410;SDS011;45215;32.610;-115.482;2022-08-21T05:21:14;11.80;;;8.00;;
59410;SDS011;45215;32.610;-115.482;2022-08-21T05:23:40;11.95;;;7.90;;
59410;SDS011;45215;32.610;-115.482;2022-08-21T05:26:07;12.20;;;7.38;;
59410;SDS011;45215;32.610;-115.482;2022-08-21T05:28:34;12.00;;;7.22;;
59410;SDS011;45215;32.610;-115.482;2022-08-21T05:31:00;10.80;;;7.10;;
59410;SDS011;45215;32.610;-115.482;2022-08-21T05:33:27;10.68;;;7.28;;
59410;SDS011;45215;32.610;-115.482;2022-08-21T05:35:53;9.18;;;6.55;;
59410;SDS011;45215;32.610;-115.482;2022-08-21T05:38:23;10.13;;;7.07;;
59410;SDS011;45215;32.610;-115.482;2022-08-21T05:40:52;11.10;;;6.97;;
59410;SDS011;45215;32.610;-115.482;2022-08-21T05:43:19;9.35;;;6.55;;
59410;SDS011;45215;32.610;-115.482;2022-08-21T05:45:46;10.02;;;6.65;;
59410;SDS011;45215;32.610;-115.482;2022-08-21T05:48:15;9.50;;;6.38;;
59410;SDS011;45215;32.610;-115.482;2022-08-21T05:50:45;10.70;;;6.63;;
59410;SDS011;45215;32.610;-115.482;2022-08-21T05:53:13;9.95;;;6.13;;
59410;SDS011;45215;32.610;-115.482;2022-08-21T05:55:41;9.85;;;6.00;;
59410;SDS011;45215;32.610;-115.482;2022-08-21T05:58:08;8.35;;;5.47;;
59410;SDS011;45215;32.610;-115.482;2022-08-21T06:00:34;8.27;;;5.72;;
59410;SDS011;45215;32.610;-115.482;2022-08-21T06:03:00;9.18;;;5.90;;
59410;SDS011;45215;32.610;-115.482;2022-08-21T06:05:26;8.85;;;5.78;;
59410;SDS011;45215;32.610;-115.482;2022-08-21T06:07:52;8.43;;;5.60;;
59410;SDS011;45215;32.610;-115.482;2022-08-21T06:10:19;10.07;;;5.20;;
59410;SDS011;45215;32.610;-115.482;2022-08-21T06:12:45;7.30;;;4.97;;
59410;SDS011;45215;32.610;-115.482;2022-08-21T06:15:12;8.25;;;5.45;;
59410;SDS011;45215;32.610;-115.482;2022-08-21T06:17:38;7.68;;;5.15;;
59410;SDS011;45215;32.610;-115.482;2022-08-21T06:20:04;6.63;;;4.65;;
59410;SDS011;45215;32.610;-115.482;2022-08-21T06:22:31;7.57;;;4.63;;
59410;SDS011;45215;32.610;-115.482;2022-08-21T06:24:57;6.20;;;4.53;;
59410;SDS011;45215;32.610;-115.482;2022-08-21T06:27:23;8.65;;;4.53;;
59410;SDS011;45215;32.610;-115.482;2022-08-21T06:29:49;8.15;;;4.75;;
59410;SDS011;45215;32.610;-115.482;2022-08-21T06:32:15;5.95;;;4.30;;
59410;SDS011;45215;32.610;-115.482;2022-08-21T06:34:41;6.80;;;4.30;;
59410;SDS011;45215;32.610;-115.482;2022-08-21T06:37:10;6.65;;;4.50;;
59410;SDS011;45215;32.610;-115.482;2022-08-21T06:39:36;8.38;;;4.15;;
59410;SDS011;45215;32.610;-115.482;2022-08-21T06:42:02;6.82;;;4.38;;
59410;SDS011;45215;32.610;-115.482;2022-08-21T06:44:29;9.63;;;6.75;;
59410;SDS011;45215;32.610;-115.482;2022-08-21T06:46:56;9.13;;;6.55;;
59410;SDS011;45215;32.610;-115.482;2022-08-21T06:49:22;9.25;;;6.65;;
59410;SDS011;45215;32.610;-115.482;2022-08-21T06:51:48;9.18;;;6.70;;
59410;SDS011;45215;32.610;-115.482;2022-08-21T06:54:14;11.52;;;8.45;;
59410;SDS011;45215;32.610;-115.482;2022-08-21T06:56:41;12.00;;;8.15;;
59410;SDS011;45215;32.610;-115.482;2022-08-21T06:59:07;11.55;;;7.95;;
59410;SDS011;45215;32.610;-115.482;2022-08-21T07:01:33;11.13;;;8.40;;
59410;SDS011;45215;32.610;-115.482;2022-08-21T07:03:59;12.60;;;8.82;;
59410;SDS011;45215;32.610;-115.482;2022-08-21T07:06:25;14.38;;;8.70;;
59410;SDS011;45215;32.610;-115.482;2022-08-21T07:08:51;12.98;;;8.25;;
59410;SDS011;45215;32.610;-115.482;2022-08-21T07:11:18;11.85;;;8.65;;
59410;SDS011;45215;32.610;-115.482;2022-08-21T07:13:46;12.18;;;8.85;;
59410;SDS011;45215;32.610;-115.482;2022-08-21T07:16:13;10.95;;;8.35;;
59410;SDS011;45215;32.610;-115.482;2022-08-21T07:18:40;91.22;;;11.75;;
59410;SDS011;45215;32.610;-115.482;2022-08-21T07:21:06;31.75;;;9.13;;
59410;SDS011;45215;32.610;-115.482;2022-08-21T07:23:36;21.05;;;8.90;;
59410;SDS011;45215;32.610;-115.482;2022-08-21T07:26:05;14.30;;;8.02;;
59410;SDS011;45215;32.610;-115.482;2022-08-21T07:28:31;15.88;;;8.68;;
59410;SDS011;45215;32.610;-115.482;2022-08-21T07:30:59;13.30;;;8.77;;
59410;SDS011;45215;32.610;-115.482;2022-08-21T07:33:27;15.95;;;8.20;;
59410;SDS011;45215;32.610;-115.482;2022-08-21T07:35:54;11.63;;;7.55;;
59410;SDS011;45215;32.610;-115.482;2022-08-21T07:38:21;13.52;;;8.10;;
59410;SDS011;45215;32.610;-115.482;2022-08-21T07:40:48;9.48;;;7.65;;
59410;SDS011;45215;32.610;-115.482;2022-08-21T07:43:16;17.63;;;13.50;;
59410;SDS011;45215;32.610;-115.482;2022-08-21T07:45:43;21.95;;;17.15;;
59410;SDS011;45215;32.610;-115.482;2022-08-21T07:48:10;49.20;;;33.47;;
59410;SDS011;45215;32.610;-115.482;2022-08-21T07:50:37;99.70;;;71.20;;
59410;SDS011;45215;32.610;-115.482;2022-08-21T07:53:05;147.43;;;110.93;;
59410;SDS011;45215;32.610;-115.482;2022-08-21T07:55:32;234.35;;;209.27;;
59410;SDS011;45215;32.610;-115.482;2022-08-21T07:57:59;399.60;;;357.77;;
59410;SDS011;45215;32.610;-115.482;2022-08-21T08:00:26;543.78;;;488.45;;
59410;SDS011;45215;32.610;-115.482;2022-08-21T08:02:54;567.05;;;510.05;;
59410;SDS011;45215;32.610;-115.482;2022-08-21T08:05:22;536.88;;;482.63;;
59410;SDS011;45215;32.610;-115.482;2022-08-21T08:07:50;513.88;;;461.98;;
59410;SDS011;45215;32.610;-115.482;2022-08-21T08:10:17;482.27;;;432.30;;
59410;SDS011;45215;32.610;-115.482;2022-08-21T08:12:44;455.20;;;407.63;;
59410;SDS011;45215;32.610;-115.482;2022-08-21T08:15:13;426.27;;;382.17;;
59410;SDS011;45215;32.610;-115.482;2022-08-21T08:17:41;405.27;;;364.07;;
59410;SDS011;45215;32.610;-115.482;2022-08-21T08:20:09;387.23;;;348.10;;
59410;SDS011;45215;32.610;-115.482;2022-08-21T08:22:38;361.73;;;325.05;;
59410;SDS011;45215;32.610;-115.482;2022-08-21T08:25:06;350.48;;;315.67;;
59410;SDS011;45215;32.610;-115.482;2022-08-21T08:27:34;326.98;;;294.73;;
59410;SDS011;45215;32.610;-115.482;2022-08-21T08:30:00;308.98;;;278.73;;
59410;SDS011;45215;32.610;-115.482;2022-08-21T08:32:27;291.30;;;263.05;;
59410;SDS011;45215;32.610;-115.482;2022-08-21T08:34:53;277.35;;;250.23;;
59410;SDS011;45215;32.610;-115.482;2022-08-21T08:37:19;256.83;;;231.90;;
59410;SDS011;45215;32.610;-115.482;2022-08-21T08:39:46;245.43;;;221.32;;
59410;SDS011;45215;32.610;-115.482;2022-08-21T08:42:13;229.57;;;207.10;;
59410;SDS011;45215;32.610;-115.482;2022-08-21T08:44:42;210.13;;;189.30;;
59410;SDS011;45215;32.610;-115.482;2022-08-21T08:47:11;198.13;;;178.27;;
59410;SDS011;45215;32.610;-115.482;2022-08-21T08:49:49;181.77;;;163.20;;
59410;SDS011;45215;32.610;-115.482;2022-08-21T08:52:51;167.95;;;150.90;;
59410;SDS011;45215;32.610;-115.482;2022-08-21T08:55:40;158.55;;;142.35;;
59410;SDS011;45215;32.610;-115.482;2022-08-21T08:58:49;148.38;;;133.40;;
59410;SDS011;45215;32.610;-115.482;2022-08-21T09:00:59;138.60;;;124.57;;
59410;SDS011;45215;32.610;-115.482;2022-08-21T09:03:27;129.30;;;116.35;;
59410;SDS011;45215;32.610;-115.482;2022-08-21T09:13:56;98.88;;;89.18;;
59410;SDS011;45215;32.610;-115.482;2022-08-21T09:22:35;77.63;;;69.95;;
59410;SDS011;45215;32.610;-115.482;2022-08-21T09:30:11;62.55;;;56.25;;
59410;SDS011;45215;32.610;-115.482;2022-08-21T09:32:38;68.68;;;53.15;;
59410;SDS011;45215;32.610;-115.482;2022-08-21T09:35:06;55.28;;;49.67;;
59410;SDS011;45215;32.610;-115.482;2022-08-21T09:40:29;49.03;;;44.10;;
59410;SDS011;45215;32.610;-115.482;2022-08-21T09:45:30;44.50;;;39.85;;
59410;SDS011;45215;32.610;-115.482;2022-08-21T09:48:20;44.63;;;39.80;;
59410;SDS011;45215;32.610;-115.482;2022-08-21T09:50:45;44.95;;;40.03;;
59410;SDS011;45215;32.610;-115.482;2022-08-21T09:56:02;52.25;;;41.97;;
59410;SDS011;45215;32.610;-115.482;2022-08-21T09:58:48;53.97;;;43.83;;
59410;SDS011;45215;32.610;-115.482;2022-08-21T10:01:18;58.83;;;45.67;;
59410;SDS011;45215;32.610;-115.482;2022-08-21T10:04:00;58.25;;;45.22;;
59410;SDS011;45215;32.610;-115.482;2022-08-21T10:06:30;63.47;;;47.00;;
59410;SDS011;45215;32.610;-115.482;2022-08-21T10:09:06;68.90;;;50.92;;
59410;SDS011;45215;32.610;-115.482;2022-08-21T10:11:39;69.35;;;50.53;;
59410;SDS011;45215;32.610;-115.482;2022-08-21T10:17:27;75.70;;;54.58;;
59410;SDS011;45215;32.610;-115.482;2022-08-21T10:20:07;74.25;;;54.65;;
59410;SDS011;45215;32.610;-115.482;2022-08-21T10:22:53;73.72;;;52.20;;
59410;SDS011;45215;32.610;-115.482;2022-08-21T10:25:41;76.18;;;54.50;;
59410;SDS011;45215;32.610;-115.482;2022-08-21T10:28:20;76.38;;;55.42;;
59410;SDS011;45215;32.610;-115.482;2022-08-21T10:31:10;76.72;;;54.80;;
59410;SDS011;45215;32.610;-115.482;2022-08-21T10:33:48;77.43;;;54.65;;
59410;SDS011;45215;32.610;-115.482;2022-08-21T10:36:29;79.47;;;54.88;;
59410;SDS011;45215;32.610;-115.482;2022-08-21T10:44:25;82.03;;;58.17;;
59410;SDS011;45215;32.610;-115.482;2022-08-21T10:47:11;80.72;;;57.13;;
59410;SDS011;45215;32.610;-115.482;2022-08-21T10:58:07;74.22;;;53.50;;
59410;SDS011;45215;32.610;-115.482;2022-08-21T11:03:27;76.25;;;54.00;;
59410;SDS011;45215;32.610;-115.482;2022-08-21T11:06:41;68.90;;;49.40;;
59410;SDS011;45215;32.610;-115.482;2022-08-21T11:08:50;70.38;;;50.38;;
59410;SDS011;45215;32.610;-115.482;2022-08-21T11:11:29;69.65;;;49.08;;
59410;SDS011;45215;32.610;-115.482;2022-08-21T11:14:08;67.25;;;48.33;;
59410;SDS011;45215;32.610;-115.482;2022-08-21T11:16:53;63.67;;;46.13;;
59410;SDS011;45215;32.610;-115.482;2022-08-21T11:19:53;63.28;;;45.42;;
59410;SDS011;45215;32.610;-115.482;2022-08-21T11:22:30;61.60;;;44.72;;
59410;SDS011;45215;32.610;-115.482;2022-08-21T11:27:40;59.70;;;43.85;;
59410;SDS011;45215;32.610;-115.482;2022-08-21T11:30:12;59.03;;;41.97;;
59410;SDS011;45215;32.610;-115.482;2022-08-21T11:38:20;53.17;;;38.85;;
59410;SDS011;45215;32.610;-115.482;2022-08-21T11:46:06;49.55;;;36.08;;
59410;SDS011;45215;32.610;-115.482;2022-08-21T11:48:59;49.58;;;35.05;;
59410;SDS011;45215;32.610;-115.482;2022-08-21T11:51:48;46.90;;;34.05;;
59410;SDS011;45215;32.610;-115.482;2022-08-21T11:54:52;43.70;;;32.88;;
59410;SDS011;45215;32.610;-115.482;2022-08-21T12:00:42;39.80;;;30.67;;
59410;SDS011;45215;32.610;-115.482;2022-08-21T12:03:37;39.88;;;29.92;;
59410;SDS011;45215;32.610;-115.482;2022-08-21T12:08:36;37.83;;;29.13;;
59410;SDS011;45215;32.610;-115.482;2022-08-21T12:13:55;37.00;;;28.30;;
59410;SDS011;45215;32.610;-115.482;2022-08-21T12:16:37;34.25;;;26.30;;
59410;SDS011;45215;32.610;-115.482;2022-08-21T12:19:09;32.50;;;26.42;;
59410;SDS011;45215;32.610;-115.482;2022-08-21T12:21:58;34.97;;;26.77;;
59410;SDS011;45215;32.610;-115.482;2022-08-21T12:29:56;29.40;;;23.83;;
59410;SDS011;45215;32.610;-115.482;2022-08-21T12:32:30;30.20;;;23.20;;
59410;SDS011;45215;32.610;-115.482;2022-08-21T12:37:47;27.33;;;21.90;;
59410;SDS011;45215;32.610;-115.482;2022-08-21T12:40:39;26.88;;;21.77;;
59410;SDS011;45215;32.610;-115.482;2022-08-21T12:43:28;26.30;;;20.38;;
59410;SDS011;45215;32.610;-115.482;2022-08-21T12:46:15;25.33;;;19.85;;
59410;SDS011;45215;32.610;-115.482;2022-08-21T12:51:18;22.90;;;18.90;;
59410;SDS011;45215;32.610;-115.482;2022-08-21T12:53:58;23.42;;;18.60;;
59410;SDS011;45215;32.610;-115.482;2022-08-21T12:56:26;20.23;;;16.77;;
59410;SDS011;45215;32.610;-115.482;2022-08-21T12:58:55;20.55;;;16.83;;
59410;SDS011;45215;32.610;-115.482;2022-08-21T13:04:04;20.10;;;16.58;;
59410;SDS011;45215;32.610;-115.482;2022-08-21T13:06:42;20.33;;;16.05;;
59410;SDS011;45215;32.610;-115.482;2022-08-21T13:09:11;19.90;;;15.95;;
59410;SDS011;45215;32.610;-115.482;2022-08-21T13:11:40;19.00;;;15.70;;
59410;SDS011;45215;32.610;-115.482;2022-08-21T13:14:13;18.83;;;15.57;;
59410;SDS011;45215;32.610;-115.482;2022-08-21T13:17:03;17.33;;;14.57;;
59410;SDS011;45215;32.610;-115.482;2022-08-21T13:19:31;15.95;;;13.60;;
59410;SDS011;45215;32.610;-115.482;2022-08-21T13:21:58;15.23;;;12.90;;
59410;SDS011;45215;32.610;-115.482;2022-08-21T13:24:26;16.92;;;13.65;;
59410;SDS011;45215;32.610;-115.482;2022-08-21T13:26:54;14.98;;;12.95;;
59410;SDS011;45215;32.610;-115.482;2022-08-21T13:29:23;15.50;;;12.63;;
59410;SDS011;45215;32.610;-115.482;2022-08-21T13:31:58;15.63;;;12.95;;
59410;SDS011;45215;32.610;-115.482;2022-08-21T13:34:29;13.98;;;12.15;;
59410;SDS011;45215;32.610;-115.482;2022-08-21T13:36:59;14.90;;;11.98;;
59410;SDS011;45215;32.610;-115.482;2022-08-21T13:39:28;14.50;;;12.00;;
59410;SDS011;45215;32.610;-115.482;2022-08-21T13:41:56;12.95;;;11.07;;
59410;SDS011;45215;32.610;-115.482;2022-08-21T13:47:20;11.50;;;9.93;;
59410;SDS011;45215;32.610;-115.482;2022-08-21T13:49:47;12.55;;;10.40;;
59410;SDS011;45215;32.610;-115.482;2022-08-21T13:52:18;11.30;;;9.77;;
59410;SDS011;45215;32.610;-115.482;2022-08-21T13:55:00;11.80;;;9.35;;
59410;SDS011;45215;32.610;-115.482;2022-08-21T13:57:34;10.80;;;9.15;;
59410;SDS011;45215;32.610;-115.482;2022-08-21T14:02:40;9.05;;;8.15;;
59410;SDS011;45215;32.610;-115.482;2022-08-21T14:05:18;9.20;;;8.20;;
59410;SDS011;45215;32.610;-115.482;2022-08-21T14:07:48;9.38;;;8.27;;
59410;SDS011;45215;32.610;-115.482;2022-08-21T14:10:19;9.43;;;7.93;;
59410;SDS011;45215;32.610;-115.482;2022-08-21T14:12:54;8.48;;;7.57;;
59410;SDS011;45215;32.610;-115.482;2022-08-21T14:15:31;8.50;;;7.43;;
59410;SDS011;45215;32.610;-115.482;2022-08-21T14:18:14;8.82;;;7.78;;
59410;SDS011;45215;32.610;-115.482;2022-08-21T14:20:43;8.10;;;7.18;;
59410;SDS011;45215;32.610;-115.482;2022-08-21T14:23:10;8.48;;;7.38;;
59410;SDS011;45215;32.610;-115.482;2022-08-21T14:25:44;8.32;;;7.20;;
59410;SDS011;45215;32.610;-115.482;2022-08-21T14:28:24;6.90;;;6.20;;
59410;SDS011;45215;32.610;-115.482;2022-08-21T14:30:53;8.48;;;6.45;;
59410;SDS011;45215;32.610;-115.482;2022-08-21T14:33:31;7.47;;;6.68;;
59410;SDS011;45215;32.610;-115.482;2022-08-21T14:35:58;8.27;;;6.50;;
59410;SDS011;45215;32.610;-115.482;2022-08-21T14:38:27;6.75;;;5.68;;
59410;SDS011;45215;32.610;-115.482;2022-08-21T14:40:58;6.63;;;5.80;;
59410;SDS011;45215;32.610;-115.482;2022-08-21T14:43:29;8.15;;;5.93;;
59410;SDS011;45215;32.610;-115.482;2022-08-21T14:45:56;6.25;;;5.57;;
59410;SDS011;45215;32.610;-115.482;2022-08-21T14:48:22;6.35;;;5.50;;
59410;SDS011;45215;32.610;-115.482;2022-08-21T14:50:49;7.00;;;5.20;;
59410;SDS011;45215;32.610;-115.482;2022-08-21T14:53:16;6.55;;;5.35;;
59410;SDS011;45215;32.610;-115.482;2022-08-21T14:55:42;6.78;;;5.15;;
59410;SDS011;45215;32.610;-115.482;2022-08-21T14:58:27;6.35;;;4.78;;
59410;SDS011;45215;32.610;-115.482;2022-08-21T15:00:53;5.78;;;5.03;;
59410;SDS011;45215;32.610;-115.482;2022-08-21T15:03:21;6.13;;;5.22;;
59410;SDS011;45215;32.610;-115.482;2022-08-21T15:05:47;6.72;;;4.80;;
59410;SDS011;45215;32.610;-115.482;2022-08-21T15:08:14;5.55;;;4.55;;
59410;SDS011;45215;32.610;-115.482;2022-08-21T15:10:40;6.10;;;4.65;;
59410;SDS011;45215;32.610;-115.482;2022-08-21T15:13:06;5.57;;;4.35;;
59410;SDS011;45215;32.610;-115.482;2022-08-21T15:15:34;4.82;;;4.32;;
59410;SDS011;45215;32.610;-115.482;2022-08-21T15:18:05;5.53;;;4.85;;
59410;SDS011;45215;32.610;-115.482;2022-08-21T15:20:31;5.47;;;4.45;;
59410;SDS011;45215;32.610;-115.482;2022-08-21T15:22:59;5.03;;;3.88;;
59410;SDS011;45215;32.610;-115.482;2022-08-21T15:25:25;4.57;;;4.15;;
59410;SDS011;45215;32.610;-115.482;2022-08-21T15:27:51;4.22;;;3.80;;
59410;SDS011;45215;32.610;-115.482;2022-08-21T15:30:17;4.45;;;3.83;;
59410;SDS011;45215;32.610;-115.482;2022-08-21T15:32:44;4.63;;;3.72;;
59410;SDS011;45215;32.610;-115.482;2022-08-21T15:35:10;4.25;;;3.70;;
59410;SDS011;45215;32.610;-115.482;2022-08-21T15:37:36;4.20;;;3.80;;
59410;SDS011;45215;32.610;-115.482;2022-08-21T15:40:03;4.55;;;2.95;;
59410;SDS011;45215;32.610;-115.482;2022-08-21T15:42:31;4.15;;;3.60;;